ニューヨーク/JFK の空港の天気 - METARとTAF

ジョン・F・ケネディ国際空港 ( KJFK / JFK ) - アメリカ ニューヨーク州ニューヨーク
飛行場実況気象(Metar)
観測時間04/24 21:51 EDT (04/25 01:51 UTC)
風向・風速北 3m/s
視程10km以上
天気現象
全天の8割程度の雲 雲底高度 7620m
気温15.6℃
湿度47%
気圧1011.1hPa
METARKJFK 250151Z 01005KT 10SM BKN250 16/04 A2986 RMK AO2 SLP111 T01560044
過去の天気等 Google飛行場航空写真 Wunderground天気予報

過去48時間のMETAR

飛行場予報(TAF)
発表時間: 4/24 19:40 EDT (4/24 23:40 UTC)
予報対象時間: 24日20時 EDT ~ 26日2時 EDT
風向・風速北北西 6m/s
視程10km以上
全天の4割程度の雲 雲底高度 7620m
24日23時 EDT から
風向・風速北北西 5m/s
視程10km以上
全天の8割程度の雲 雲底高度 7620m
25日5時 EDT から
風向・風速北 3m/s
視程10km以上
全天の8割程度の雲 雲底高度 6100m
25日9時 EDT から
風向・風速不定 3m/s
視程10km以上
全天の4割程度の雲 雲底高度 7620m
25日11時 EDT から
風向・風速南 4m/s
視程10km以上
全天の4割程度の雲 雲底高度 7620m
25日14時 EDT から
風向・風速南 5m/s
視程10km以上
全天の4割程度の雲 雲底高度 3050m
全天の8割程度の雲 雲底高度 7620m
25日20時 EDT から
風向・風速南南東 3m/s
視程10km以上
全天の8割程度の雲 雲底高度 1520m
KJFK 242340Z 2500/2606 34012KT P6SM SCT250
FM250300 34009KT P6SM BKN250
FM250900 35005KT P6SM BKN200
FM251300 VRB05KT P6SM SCT250
FM251500 18008KT P6SM SCT250
FM251800 18010KT P6SM SCT100 BKN250
FM260000 16006KT P6SM BKN050